GVAC/SID METAR and TAF weather

Enter ICAO airport designator
Station Type Date Time Source
GVAC METAR 2019/09/21 05:00 UTC NOAA

GVAC 210500Z 06009KT 9999 BKN014 BKN016 27/23 Q1012 NOSIG


Station Type Date Time Source
GVAC Decoded METAR 2019/09/21 05:00 UTC NOAA

Sal, Cape Verde (GVAC) 16-44N 022-57W 55M
Sep 21, 2019 - 01:00 AM EDT / 2019.09.21 0500 UTC
Wind: from the ENE (060 degrees) at 10 MPH (9 KT):0
Visibility: greater than 7 mile(s):0
Sky conditions: mostly cloudy
Temperature: 80 F (27 C)
Dew Point: 73 F (23 C)
Relative Humidity: 78%
Pressure (altimeter): 29.88 in. Hg (1012 hPa)
ob: GVAC 210500Z 06009KT 9999 BKN014 BKN016 27/23 Q1012 NOSIG
cycle: 5

Station Type Date Time Source
GVAC TAF 2019/09/21 06:05 UTC NOAA

TAF GVAC 210500Z 2106/2212 06010KT 9999 BKN014
BECMG 2206/2208 SCT014

Example: see airport list